sensor_id;sensor_type;location;lat;lon;timestamp;temperature;humidity
7762;DHT22;3925;48.636;9.516;2022-08-04T00:02:02;21.80;99.90
7762;DHT22;3925;48.636;9.516;2022-08-04T00:04:42;21.70;99.90
7762;DHT22;3925;48.636;9.516;2022-08-04T00:07:15;21.80;99.90
7762;DHT22;3925;48.636;9.516;2022-08-04T00:09:48;21.70;99.90
7762;DHT22;3925;48.636;9.516;2022-08-04T00:12:16;21.60;99.90
7762;DHT22;3925;48.636;9.516;2022-08-04T00:14:48;21.60;99.90
7762;DHT22;3925;48.636;9.516;2022-08-04T00:17:17;21.50;99.90
7762;DHT22;3925;48.636;9.516;2022-08-04T00:19:47;21.70;99.90
7762;DHT22;3925;48.636;9.516;2022-08-04T00:22:18;21.70;99.70
7762;DHT22;3925;48.636;9.516;2022-08-04T00:24:47;21.60;99.90
7762;DHT22;3925;48.636;9.516;2022-08-04T00:27:14;21.60;99.90
7762;DHT22;3925;48.636;9.516;2022-08-04T00:29:42;21.60;99.90
7762;DHT22;3925;48.636;9.516;2022-08-04T00:32:11;21.50;99.90
7762;DHT22;3925;48.636;9.516;2022-08-04T00:34:39;21.50;99.90
7762;DHT22;3925;48.636;9.516;2022-08-04T00:37:06;21.50;99.90
7762;DHT22;3925;48.636;9.516;2022-08-04T00:39:33;21.20;99.90
7762;DHT22;3925;48.636;9.516;2022-08-04T00:42:24;21.20;99.90
7762;DHT22;3925;48.636;9.516;2022-08-04T00:45:06;21.10;99.90
7762;DHT22;3925;48.636;9.516;2022-08-04T00:47:49;21.20;99.90
7762;DHT22;3925;48.636;9.516;2022-08-04T00:50:30;21.20;99.90
7762;DHT22;3925;48.636;9.516;2022-08-04T00:53:06;21.10;99.90
7762;DHT22;3925;48.636;9.516;2022-08-04T00:58:57;21.10;99.90
7762;DHT22;3925;48.636;9.516;2022-08-04T01:01:41;21.00;99.90
7762;DHT22;3925;48.636;9.516;2022-08-04T01:04:15;21.00;99.90
7762;DHT22;3925;48.636;9.516;2022-08-04T01:06:57;21.00;99.90
7762;DHT22;3925;48.636;9.516;2022-08-04T01:09:40;20.90;99.90
7762;DHT22;3925;48.636;9.516;2022-08-04T01:12:42;20.90;99.90
7762;DHT22;3925;48.636;9.516;2022-08-04T01:15:21;20.90;99.90
7762;DHT22;3925;48.636;9.516;2022-08-04T01:17:58;20.90;99.90
7762;DHT22;3925;48.636;9.516;2022-08-04T01:20:32;20.90;99.90
7762;DHT22;3925;48.636;9.516;2022-08-04T01:26:37;20.90;99.90
7762;DHT22;3925;48.636;9.516;2022-08-04T01:29:08;20.90;99.90
7762;DHT22;3925;48.636;9.516;2022-08-04T01:31:47;20.90;99.90
7762;DHT22;3925;48.636;9.516;2022-08-04T01:34:18;20.90;99.90
7762;DHT22;3925;48.636;9.516;2022-08-04T01:36:56;20.80;99.90
7762;DHT22;3925;48.636;9.516;2022-08-04T01:39:30;20.70;99.90
7762;DHT22;3925;48.636;9.516;2022-08-04T01:42:09;20.50;99.90
7762;DHT22;3925;48.636;9.516;2022-08-04T01:44:39;20.40;99.90
7762;DHT22;3925;48.636;9.516;2022-08-04T01:47:08;20.40;99.90
7762;DHT22;3925;48.636;9.516;2022-08-04T01:49:37;20.30;99.90
7762;DHT22;3925;48.636;9.516;2022-08-04T01:52:08;20.10;99.90
7762;DHT22;3925;48.636;9.516;2022-08-04T01:54:37;20.20;99.90
7762;DHT22;3925;48.636;9.516;2022-08-04T01:57:09;20.20;99.90
7762;DHT22;3925;48.636;9.516;2022-08-04T01:59:38;20.20;99.90
7762;DHT22;3925;48.636;9.516;2022-08-04T02:02:06;20.30;99.90
7762;DHT22;3925;48.636;9.516;2022-08-04T02:04:34;20.20;99.90
7762;DHT22;3925;48.636;9.516;2022-08-04T02:07:11;20.10;99.90
7762;DHT22;3925;48.636;9.516;2022-08-04T02:09:49;19.90;99.90
7762;DHT22;3925;48.636;9.516;2022-08-04T02:12:24;19.80;99.90
7762;DHT22;3925;48.636;9.516;2022-08-04T02:15:03;19.80;99.90
7762;DHT22;3925;48.636;9.516;2022-08-04T02:17:40;19.90;99.90
7762;DHT22;3925;48.636;9.516;2022-08-04T02:20:16;19.80;99.90
7762;DHT22;3925;48.636;9.516;2022-08-04T02:22:48;19.90;99.90
7762;DHT22;3925;48.636;9.516;2022-08-04T02:25:24;19.90;99.90
7762;DHT22;3925;48.636;9.516;2022-08-04T02:28:04;19.90;99.90
7762;DHT22;3925;48.636;9.516;2022-08-04T02:30:40;19.80;99.90
7762;DHT22;3925;48.636;9.516;2022-08-04T02:33:12;19.90;99.90
7762;DHT22;3925;48.636;9.516;2022-08-04T02:35:40;19.90;99.90
7762;DHT22;3925;48.636;9.516;2022-08-04T02:38:42;19.90;99.90
7762;DHT22;3925;48.636;9.516;2022-08-04T02:41:15;19.80;99.90
7762;DHT22;3925;48.636;9.516;2022-08-04T02:43:43;19.70;99.90
7762;DHT22;3925;48.636;9.516;2022-08-04T02:46:16;19.70;99.90
7762;DHT22;3925;48.636;9.516;2022-08-04T02:48:45;19.80;99.90
7762;DHT22;3925;48.636;9.516;2022-08-04T02:51:14;19.70;99.90
7762;DHT22;3925;48.636;9.516;2022-08-04T02:53:42;19.80;99.90
7762;DHT22;3925;48.636;9.516;2022-08-04T02:56:10;19.80;99.90
7762;DHT22;3925;48.636;9.516;2022-08-04T02:58:41;19.80;99.90
7762;DHT22;3925;48.636;9.516;2022-08-04T03:01:11;19.80;99.90
7762;DHT22;3925;48.636;9.516;2022-08-04T03:03:42;19.80;99.90
7762;DHT22;3925;48.636;9.516;2022-08-04T03:09:50;19.70;99.90
7762;DHT22;3925;48.636;9.516;2022-08-04T03:12:51;19.60;99.90
7762;DHT22;3925;48.636;9.516;2022-08-04T03:15:54;19.70;99.90
7762;DHT22;3925;48.636;9.516;2022-08-04T03:30:56;19.60;99.90
7762;DHT22;3925;48.636;9.516;2022-08-04T03:33:50;19.60;99.90
7762;DHT22;3925;48.636;9.516;2022-08-04T03:37:02;19.50;99.90
7762;DHT22;3925;48.636;9.516;2022-08-04T03:42:50;19.40;99.90
7762;DHT22;3925;48.636;9.516;2022-08-04T03:51:41;19.40;99.90
7762;DHT22;3925;48.636;9.516;2022-08-04T03:54:58;19.40;99.90
7762;DHT22;3925;48.636;9.516;2022-08-04T03:58:16;19.40;99.90
7762;DHT22;3925;48.636;9.516;2022-08-04T04:01:01;19.40;99.90
7762;DHT22;3925;48.636;9.516;2022-08-04T04:03:58;19.40;99.90
7762;DHT22;3925;48.636;9.516;2022-08-04T04:06:59;19.40;99.90
7762;DHT22;3925;48.636;9.516;2022-08-04T04:09:56;19.40;99.90
7762;DHT22;3925;48.636;9.516;2022-08-04T04:12:41;19.30;99.90
7762;DHT22;3925;48.636;9.516;2022-08-04T04:15:29;19.30;99.90
7762;DHT22;3925;48.636;9.516;2022-08-04T04:18:15;19.10;99.90
7762;DHT22;3925;48.636;9.516;2022-08-04T04:21:16;19.10;99.90
7762;DHT22;3925;48.636;9.516;2022-08-04T04:24:00;19.20;99.90
7762;DHT22;3925;48.636;9.516;2022-08-04T04:26:49;19.30;99.90
7762;DHT22;3925;48.636;9.516;2022-08-04T04:29:31;19.30;99.90
7762;DHT22;3925;48.636;9.516;2022-08-04T04:32:12;19.40;99.90
7762;DHT22;3925;48.636;9.516;2022-08-04T04:34:52;19.40;99.90
7762;DHT22;3925;48.636;9.516;2022-08-04T04:37:42;19.40;99.90
7762;DHT22;3925;48.636;9.516;2022-08-04T04:40:24;19.50;99.90
7762;DHT22;3925;48.636;9.516;2022-08-04T04:43:14;19.50;99.90
7762;DHT22;3925;48.636;9.516;2022-08-04T04:45:50;19.50;99.90
7762;DHT22;3925;48.636;9.516;2022-08-04T04:48:28;19.60;99.90
7762;DHT22;3925;48.636;9.516;2022-08-04T04:51:08;19.60;99.90
7762;DHT22;3925;48.636;9.516;2022-08-04T04:53:44;19.60;99.90
7762;DHT22;3925;48.636;9.516;2022-08-04T04:56:26;19.70;99.90
7762;DHT22;3925;48.636;9.516;2022-08-04T04:58:54;19.70;99.90
7762;DHT22;3925;48.636;9.516;2022-08-04T05:01:57;19.80;99.90
7762;DHT22;3925;48.636;9.516;2022-08-04T05:04:56;19.90;99.90
7762;DHT22;3925;48.636;9.516;2022-08-04T05:07:54;19.90;99.90
7762;DHT22;3925;48.636;9.516;2022-08-04T05:10:38;20.10;99.90
7762;DHT22;3925;48.636;9.516;2022-08-04T05:13:22;20.20;99.90
7762;DHT22;3925;48.636;9.516;2022-08-04T05:16:01;20.30;99.90
7762;DHT22;3925;48.636;9.516;2022-08-04T05:18:31;20.40;99.90
7762;DHT22;3925;48.636;9.516;2022-08-04T05:21:09;20.60;99.90
7762;DHT22;3925;48.636;9.516;2022-08-04T05:23:43;20.70;99.90
7762;DHT22;3925;48.636;9.516;2022-08-04T05:26:15;21.20;99.90
7762;DHT22;3925;48.636;9.516;2022-08-04T05:28:51;22.10;99.90
7762;DHT22;3925;48.636;9.516;2022-08-04T05:31:22;23.90;99.90
7762;DHT22;3925;48.636;9.516;2022-08-04T05:33:53;26.20;99.90
7762;DHT22;3925;48.636;9.516;2022-08-04T05:36:24;28.80;97.80
7762;DHT22;3925;48.636;9.516;2022-08-04T05:38:53;31.00;92.10
7762;DHT22;3925;48.636;9.516;2022-08-04T05:41:25;32.90;81.00
7762;DHT22;3925;48.636;9.516;2022-08-04T05:43:54;34.70;68.50
7762;DHT22;3925;48.636;9.516;2022-08-04T05:46:22;35.90;60.30
7762;DHT22;3925;48.636;9.516;2022-08-04T05:48:51;36.80;56.60
7762;DHT22;3925;48.636;9.516;2022-08-04T05:51:18;37.70;52.70
7762;DHT22;3925;48.636;9.516;2022-08-04T05:53:46;38.50;50.10
7762;DHT22;3925;48.636;9.516;2022-08-04T05:56:14;39.30;46.00
7762;DHT22;3925;48.636;9.516;2022-08-04T05:58:43;39.90;46.40
7762;DHT22;3925;48.636;9.516;2022-08-04T06:01:13;40.30;43.30
7762;DHT22;3925;48.636;9.516;2022-08-04T06:03:43;40.70;42.10
7762;DHT22;3925;48.636;9.516;2022-08-04T06:06:13;41.30;40.40
7762;DHT22;3925;48.636;9.516;2022-08-04T06:08:41;41.70;38.40
7762;DHT22;3925;48.636;9.516;2022-08-04T06:11:08;42.10;37.80
7762;DHT22;3925;48.636;9.516;2022-08-04T06:13:41;42.60;37.00
7762;DHT22;3925;48.636;9.516;2022-08-04T06:16:10;42.90;36.10
7762;DHT22;3925;48.636;9.516;2022-08-04T06:18:40;43.30;35.40
7762;DHT22;3925;48.636;9.516;2022-08-04T06:21:10;43.80;34.50
7762;DHT22;3925;48.636;9.516;2022-08-04T06:23:39;43.90;33.00
7762;DHT22;3925;48.636;9.516;2022-08-04T06:26:09;44.10;32.70
7762;DHT22;3925;48.636;9.516;2022-08-04T06:28:37;44.10;32.20
7762;DHT22;3925;48.636;9.516;2022-08-04T06:31:07;44.40;31.30
7762;DHT22;3925;48.636;9.516;2022-08-04T06:33:35;44.80;30.70
7762;DHT22;3925;48.636;9.516;2022-08-04T06:36:05;45.20;30.00
7762;DHT22;3925;48.636;9.516;2022-08-04T06:38:33;45.30;30.70
7762;DHT22;3925;48.636;9.516;2022-08-04T06:41:02;45.50;29.50
7762;DHT22;3925;48.636;9.516;2022-08-04T06:43:35;45.90;29.30
7762;DHT22;3925;48.636;9.516;2022-08-04T06:46:04;46.20;28.70
7762;DHT22;3925;48.636;9.516;2022-08-04T06:48:32;46.60;28.40
7762;DHT22;3925;48.636;9.516;2022-08-04T06:50:59;46.60;28.20
7762;DHT22;3925;48.636;9.516;2022-08-04T06:53:29;46.80;28.30
7762;DHT22;3925;48.636;9.516;2022-08-04T06:55:56;47.00;28.60
7762;DHT22;3925;48.636;9.516;2022-08-04T06:58:26;47.20;27.90
7762;DHT22;3925;48.636;9.516;2022-08-04T07:00:54;47.50;28.20
7762;DHT22;3925;48.636;9.516;2022-08-04T07:03:26;47.70;28.30
7762;DHT22;3925;48.636;9.516;2022-08-04T07:05:54;47.30;28.80
7762;DHT22;3925;48.636;9.516;2022-08-04T07:08:21;47.50;27.90
7762;DHT22;3925;48.636;9.516;2022-08-04T07:10:50;45.70;27.90
7762;DHT22;3925;48.636;9.516;2022-08-04T07:13:19;46.20;28.30
7762;DHT22;3925;48.636;9.516;2022-08-04T07:15:47;46.40;27.50
7762;DHT22;3925;48.636;9.516;2022-08-04T07:18:14;46.10;27.40
7762;DHT22;3925;48.636;9.516;2022-08-04T07:20:43;45.80;28.70
7762;DHT22;3925;48.636;9.516;2022-08-04T07:23:10;46.90;28.60
7762;DHT22;3925;48.636;9.516;2022-08-04T07:25:42;47.30;28.20
7762;DHT22;3925;48.636;9.516;2022-08-04T07:28:13;46.10;28.40
7762;DHT22;3925;48.636;9.516;2022-08-04T07:30:40;46.30;28.00
7762;DHT22;3925;48.636;9.516;2022-08-04T07:33:09;45.70;27.80
7762;DHT22;3925;48.636;9.516;2022-08-04T07:35:37;46.60;28.60
7762;DHT22;3925;48.636;9.516;2022-08-04T07:38:04;47.40;28.50
7762;DHT22;3925;48.636;9.516;2022-08-04T07:40:32;48.00;27.90
7762;DHT22;3925;48.636;9.516;2022-08-04T07:43:01;47.70;27.20
7762;DHT22;3925;48.636;9.516;2022-08-04T07:45:30;48.40;26.20
7762;DHT22;3925;48.636;9.516;2022-08-04T07:47:57;47.70;27.50
7762;DHT22;3925;48.636;9.516;2022-08-04T07:50:24;48.20;27.70
7762;DHT22;3925;48.636;9.516;2022-08-04T07:52:52;48.10;26.70
7762;DHT22;3925;48.636;9.516;2022-08-04T07:55:19;48.20;26.00
7762;DHT22;3925;48.636;9.516;2022-08-04T07:57:47;48.10;26.10
7762;DHT22;3925;48.636;9.516;2022-08-04T08:00:14;48.00;25.60
7762;DHT22;3925;48.636;9.516;2022-08-04T08:02:45;47.90;26.20
7762;DHT22;3925;48.636;9.516;2022-08-04T08:05:14;48.50;25.50
7762;DHT22;3925;48.636;9.516;2022-08-04T08:07:44;48.40;26.20
7762;DHT22;3925;48.636;9.516;2022-08-04T08:10:12;48.50;26.20
7762;DHT22;3925;48.636;9.516;2022-08-04T08:12:40;48.30;26.50
7762;DHT22;3925;48.636;9.516;2022-08-04T08:15:09;47.70;26.00
7762;DHT22;3925;48.636;9.516;2022-08-04T08:17:37;48.20;27.70
7762;DHT22;3925;48.636;9.516;2022-08-04T08:20:08;48.70;25.70
7762;DHT22;3925;48.636;9.516;2022-08-04T08:22:36;48.70;25.90
7762;DHT22;3925;48.636;9.516;2022-08-04T08:25:04;48.00;27.30
7762;DHT22;3925;48.636;9.516;2022-08-04T08:27:31;48.20;27.10
7762;DHT22;3925;48.636;9.516;2022-08-04T08:29:59;47.50;27.00
7762;DHT22;3925;48.636;9.516;2022-08-04T08:32:26;47.50;27.90
7762;DHT22;3925;48.636;9.516;2022-08-04T08:34:53;48.30;27.60
7762;DHT22;3925;48.636;9.516;2022-08-04T08:37:28;49.10;27.30
7762;DHT22;3925;48.636;9.516;2022-08-04T08:40:01;49.40;26.20
7762;DHT22;3925;48.636;9.516;2022-08-04T08:42:46;49.90;25.00
7762;DHT22;3925;48.636;9.516;2022-08-04T08:45:47;49.50;25.80
7762;DHT22;3925;48.636;9.516;2022-08-04T08:51:22;48.90;24.90
7762;DHT22;3925;48.636;9.516;2022-08-04T08:54:34;48.70;25.90
7762;DHT22;3925;48.636;9.516;2022-08-04T08:57:19;48.50;26.80
7762;DHT22;3925;48.636;9.516;2022-08-04T09:00:03;48.60;25.90
7762;DHT22;3925;48.636;9.516;2022-08-04T09:03:13;48.20;26.10
7762;DHT22;3925;48.636;9.516;2022-08-04T09:06:00;48.70;26.70
7762;DHT22;3925;48.636;9.516;2022-08-04T09:08:54;48.50;25.40
7762;DHT22;3925;48.636;9.516;2022-08-04T09:11:27;48.50;25.80
7762;DHT22;3925;48.636;9.516;2022-08-04T09:14:00;48.70;26.00
7762;DHT22;3925;48.636;9.516;2022-08-04T09:16:35;48.70;26.60
7762;DHT22;3925;48.636;9.516;2022-08-04T09:19:07;49.00;26.70
7762;DHT22;3925;48.636;9.516;2022-08-04T09:21:39;49.20;26.80
7762;DHT22;3925;48.636;9.516;2022-08-04T09:24:10;49.40;27.00
7762;DHT22;3925;48.636;9.516;2022-08-04T09:26:45;49.40;26.20
7762;DHT22;3925;48.636;9.516;2022-08-04T09:29:18;49.40;26.70
7762;DHT22;3925;48.636;9.516;2022-08-04T09:31:53;49.60;27.10
7762;DHT22;3925;48.636;9.516;2022-08-04T09:34:30;49.70;26.20
7762;DHT22;3925;48.636;9.516;2022-08-04T09:37:06;49.80;26.10
7762;DHT22;3925;48.636;9.516;2022-08-04T09:39:45;49.90;25.50
7762;DHT22;3925;48.636;9.516;2022-08-04T09:42:19;46.50;26.90
7762;DHT22;3925;48.636;9.516;2022-08-04T09:45:06;46.80;30.20
7762;DHT22;3925;48.636;9.516;2022-08-04T09:47:37;47.80;28.40
7762;DHT22;3925;48.636;9.516;2022-08-04T09:50:14;48.50;28.00
7762;DHT22;3925;48.636;9.516;2022-08-04T09:52:53;48.00;28.20
7762;DHT22;3925;48.636;9.516;2022-08-04T09:55:33;47.80;28.10
7762;DHT22;3925;48.636;9.516;2022-08-04T09:58:07;48.10;27.60
7762;DHT22;3925;48.636;9.516;2022-08-04T10:00:50;48.30;27.80
7762;DHT22;3925;48.636;9.516;2022-08-04T10:03:21;48.10;26.20
7762;DHT22;3925;48.636;9.516;2022-08-04T10:06:03;48.00;26.40
7762;DHT22;3925;48.636;9.516;2022-08-04T10:08:42;47.30;25.70
7762;DHT22;3925;48.636;9.516;2022-08-04T10:11:21;46.00;27.90
7762;DHT22;3925;48.636;9.516;2022-08-04T10:13:56;46.10;27.70
7762;DHT22;3925;48.636;9.516;2022-08-04T10:16:37;46.20;28.60
7762;DHT22;3925;48.636;9.516;2022-08-04T10:19:17;46.40;28.20
7762;DHT22;3925;48.636;9.516;2022-08-04T10:21:58;46.40;28.00
7762;DHT22;3925;48.636;9.516;2022-08-04T10:24:35;46.00;27.40
7762;DHT22;3925;48.636;9.516;2022-08-04T10:27:11;46.00;28.20
7762;DHT22;3925;48.636;9.516;2022-08-04T10:29:43;46.20;29.50
7762;DHT22;3925;48.636;9.516;2022-08-04T10:32:16;46.70;28.90
7762;DHT22;3925;48.636;9.516;2022-08-04T10:35:00;46.10;29.30
7762;DHT22;3925;48.636;9.516;2022-08-04T10:37:30;45.60;28.30
7762;DHT22;3925;48.636;9.516;2022-08-04T10:40:02;45.80;29.30
7762;DHT22;3925;48.636;9.516;2022-08-04T10:42:59;46.50;28.60
7762;DHT22;3925;48.636;9.516;2022-08-04T10:45:35;44.50;28.00
7762;DHT22;3925;48.636;9.516;2022-08-04T10:48:07;45.60;29.40
7762;DHT22;3925;48.636;9.516;2022-08-04T10:50:41;46.20;27.90
7762;DHT22;3925;48.636;9.516;2022-08-04T10:53:12;46.40;27.50
7762;DHT22;3925;48.636;9.516;2022-08-04T10:55:44;46.60;26.80
7762;DHT22;3925;48.636;9.516;2022-08-04T10:58:17;46.50;26.70
7762;DHT22;3925;48.636;9.516;2022-08-04T11:00:46;45.70;27.40
7762;DHT22;3925;48.636;9.516;2022-08-04T11:03:20;45.10;27.10
7762;DHT22;3925;48.636;9.516;2022-08-04T11:05:52;43.90;28.20
7762;DHT22;3925;48.636;9.516;2022-08-04T11:08:22;43.50;29.40
7762;DHT22;3925;48.636;9.516;2022-08-04T11:10:57;42.90;31.30
7762;DHT22;3925;48.636;9.516;2022-08-04T11:13:31;42.10;29.40
7762;DHT22;3925;48.636;9.516;2022-08-04T11:16:04;41.70;32.30
7762;DHT22;3925;48.636;9.516;2022-08-04T11:18:36;41.50;31.60
7762;DHT22;3925;48.636;9.516;2022-08-04T11:21:11;40.60;30.60
7762;DHT22;3925;48.636;9.516;2022-08-04T11:23:47;40.30;33.00
7762;DHT22;3925;48.636;9.516;2022-08-04T11:26:20;39.90;31.90
7762;DHT22;3925;48.636;9.516;2022-08-04T11:28:55;39.90;32.50
7762;DHT22;3925;48.636;9.516;2022-08-04T11:31:29;40.00;34.50
7762;DHT22;3925;48.636;9.516;2022-08-04T11:34:03;40.00;35.00
7762;DHT22;3925;48.636;9.516;2022-08-04T11:36:38;39.80;31.80
7762;DHT22;3925;48.636;9.516;2022-08-04T11:39:10;39.80;34.30
7762;DHT22;3925;48.636;9.516;2022-08-04T11:41:46;40.00;35.20
7762;DHT22;3925;48.636;9.516;2022-08-04T11:44:22;39.70;30.90
7762;DHT22;3925;48.636;9.516;2022-08-04T11:46:55;39.00;32.50
7762;DHT22;3925;48.636;9.516;2022-08-04T11:49:30;38.80;34.00
7762;DHT22;3925;48.636;9.516;2022-08-04T11:51:59;38.60;35.30
7762;DHT22;3925;48.636;9.516;2022-08-04T11:54:27;38.50;31.90
7762;DHT22;3925;48.636;9.516;2022-08-04T11:56:54;38.40;32.60
7762;DHT22;3925;48.636;9.516;2022-08-04T11:59:23;38.30;29.80
7762;DHT22;3925;48.636;9.516;2022-08-04T12:02:05;38.40;31.90
7762;DHT22;3925;48.636;9.516;2022-08-04T12:04:44;38.50;30.90
7762;DHT22;3925;48.636;9.516;2022-08-04T12:07:17;38.00;32.00
7762;DHT22;3925;48.636;9.516;2022-08-04T12:10:01;38.20;30.80
7762;DHT22;3925;48.636;9.516;2022-08-04T12:12:40;38.30;33.10
7762;DHT22;3925;48.636;9.516;2022-08-04T12:15:15;38.50;35.20
7762;DHT22;3925;48.636;9.516;2022-08-04T12:17:49;38.50;30.30
7762;DHT22;3925;48.636;9.516;2022-08-04T12:20:20;38.00;30.90
7762;DHT22;3925;48.636;9.516;2022-08-04T12:22:50;38.10;34.20
7762;DHT22;3925;48.636;9.516;2022-08-04T12:25:20;37.80;32.20
7762;DHT22;3925;48.636;9.516;2022-08-04T12:27:52;37.50;33.50
7762;DHT22;3925;48.636;9.516;2022-08-04T12:30:21;37.30;33.00
7762;DHT22;3925;48.636;9.516;2022-08-04T12:32:54;37.30;32.70
7762;DHT22;3925;48.636;9.516;2022-08-04T12:35:30;36.90;34.00
7762;DHT22;3925;48.636;9.516;2022-08-04T12:38:02;36.80;33.30
7762;DHT22;3925;48.636;9.516;2022-08-04T12:40:35;36.60;33.50
7762;DHT22;3925;48.636;9.516;2022-08-04T12:43:10;36.70;35.60
7762;DHT22;3925;48.636;9.516;2022-08-04T12:45:42;36.30;33.60
7762;DHT22;3925;48.636;9.516;2022-08-04T12:48:11;36.10;34.90
7762;DHT22;3925;48.636;9.516;2022-08-04T12:50:39;36.00;34.90
7762;DHT22;3925;48.636;9.516;2022-08-04T12:53:11;35.90;35.60
7762;DHT22;3925;48.636;9.516;2022-08-04T12:55:44;35.70;34.40
7762;DHT22;3925;48.636;9.516;2022-08-04T12:58:19;35.80;36.50
7762;DHT22;3925;48.636;9.516;2022-08-04T13:00:52;35.80;37.30
7762;DHT22;3925;48.636;9.516;2022-08-04T13:03:25;35.90;34.80
7762;DHT22;3925;48.636;9.516;2022-08-04T13:05:53;35.60;35.70
7762;DHT22;3925;48.636;9.516;2022-08-04T13:08:22;35.70;37.00
7762;DHT22;3925;48.636;9.516;2022-08-04T13:10:52;35.70;36.20
7762;DHT22;3925;48.636;9.516;2022-08-04T13:13:24;35.50;37.70
7762;DHT22;3925;48.636;9.516;2022-08-04T13:15:58;35.40;36.30
7762;DHT22;3925;48.636;9.516;2022-08-04T13:18:29;35.40;36.90
7762;DHT22;3925;48.636;9.516;2022-08-04T13:21:09;35.40;37.60
7762;DHT22;3925;48.636;9.516;2022-08-04T13:23:38;35.10;36.10
7762;DHT22;3925;48.636;9.516;2022-08-04T13:26:05;35.00;36.80
7762;DHT22;3925;48.636;9.516;2022-08-04T13:28:33;35.00;36.70
7762;DHT22;3925;48.636;9.516;2022-08-04T13:31:06;35.20;36.90
7762;DHT22;3925;48.636;9.516;2022-08-04T13:33:38;35.20;38.70
7762;DHT22;3925;48.636;9.516;2022-08-04T13:36:07;35.30;39.30
7762;DHT22;3925;48.636;9.516;2022-08-04T13:38:37;35.30;40.10
7762;DHT22;3925;48.636;9.516;2022-08-04T13:41:06;35.20;37.10
7762;DHT22;3925;48.636;9.516;2022-08-04T13:43:41;35.20;39.00
7762;DHT22;3925;48.636;9.516;2022-08-04T13:46:13;35.30;38.50
7762;DHT22;3925;48.636;9.516;2022-08-04T13:48:43;35.10;37.80
7762;DHT22;3925;48.636;9.516;2022-08-04T13:51:11;35.20;39.30
7762;DHT22;3925;48.636;9.516;2022-08-04T13:53:39;35.20;39.40
7762;DHT22;3925;48.636;9.516;2022-08-04T13:56:08;35.20;39.80
7762;DHT22;3925;48.636;9.516;2022-08-04T13:58:42;35.10;40.40
7762;DHT22;3925;48.636;9.516;2022-08-04T14:01:14;35.20;38.60
7762;DHT22;3925;48.636;9.516;2022-08-04T14:04:01;35.00;38.30
7762;DHT22;3925;48.636;9.516;2022-08-04T14:06:31;34.90;40.80
7762;DHT22;3925;48.636;9.516;2022-08-04T14:09:01;34.70;39.60
7762;DHT22;3925;48.636;9.516;2022-08-04T14:11:34;34.70;40.50
7762;DHT22;3925;48.636;9.516;2022-08-04T14:14:12;34.80;41.40
7762;DHT22;3925;48.636;9.516;2022-08-04T14:16:54;34.70;39.60
7762;DHT22;3925;48.636;9.516;2022-08-04T14:19:23;34.70;38.60
7762;DHT22;3925;48.636;9.516;2022-08-04T14:21:50;34.70;40.50
7762;DHT22;3925;48.636;9.516;2022-08-04T14:24:27;34.80;40.50
7762;DHT22;3925;48.636;9.516;2022-08-04T14:26:58;34.70;41.60
7762;DHT22;3925;48.636;9.516;2022-08-04T14:29:35;34.80;42.30
7762;DHT22;3925;48.636;9.516;2022-08-04T14:32:04;34.80;39.90
7762;DHT22;3925;48.636;9.516;2022-08-04T14:34:37;34.80;40.30
7762;DHT22;3925;48.636;9.516;2022-08-04T14:37:09;34.70;40.50
7762;DHT22;3925;48.636;9.516;2022-08-04T14:39:37;34.70;41.70
7762;DHT22;3925;48.636;9.516;2022-08-04T14:42:06;34.50;40.60
7762;DHT22;3925;48.636;9.516;2022-08-04T14:44:51;34.50;39.80
7762;DHT22;3925;48.636;9.516;2022-08-04T14:47:18;34.50;39.70
7762;DHT22;3925;48.636;9.516;2022-08-04T14:49:55;34.40;39.30
7762;DHT22;3925;48.636;9.516;2022-08-04T14:52:23;34.30;39.60
7762;DHT22;3925;48.636;9.516;2022-08-04T14:54:52;34.30;40.00
7762;DHT22;3925;48.636;9.516;2022-08-04T14:57:19;34.30;40.10
7762;DHT22;3925;48.636;9.516;2022-08-04T14:59:47;34.20;40.40
7762;DHT22;3925;48.636;9.516;2022-08-04T15:02:15;34.10;41.50
7762;DHT22;3925;48.636;9.516;2022-08-04T15:04:43;34.20;42.00
7762;DHT22;3925;48.636;9.516;2022-08-04T15:07:13;34.30;42.40
7762;DHT22;3925;48.636;9.516;2022-08-04T15:09:40;34.20;40.40
7762;DHT22;3925;48.636;9.516;2022-08-04T15:12:10;34.20;41.30
7762;DHT22;3925;48.636;9.516;2022-08-04T15:14:36;34.20;41.40
7762;DHT22;3925;48.636;9.516;2022-08-04T15:17:05;34.30;41.10
7762;DHT22;3925;48.636;9.516;2022-08-04T15:19:32;34.20;41.10
7762;DHT22;3925;48.636;9.516;2022-08-04T15:22:00;34.10;40.80
7762;DHT22;3925;48.636;9.516;2022-08-04T15:24:29;34.10;41.00
7762;DHT22;3925;48.636;9.516;2022-08-04T15:26:58;34.10;41.70
7762;DHT22;3925;48.636;9.516;2022-08-04T15:29:29;34.20;42.30
7762;DHT22;3925;48.636;9.516;2022-08-04T15:32:02;34.20;42.10
7762;DHT22;3925;48.636;9.516;2022-08-04T15:34:43;34.10;42.40
7762;DHT22;3925;48.636;9.516;2022-08-04T15:37:14;34.10;42.30
7762;DHT22;3925;48.636;9.516;2022-08-04T15:39:50;34.10;42.40
7762;DHT22;3925;48.636;9.516;2022-08-04T15:42:29;34.10;42.40
7762;DHT22;3925;48.636;9.516;2022-08-04T15:45:14;34.10;44.10
7762;DHT22;3925;48.636;9.516;2022-08-04T15:51:09;34.00;41.90
7762;DHT22;3925;48.636;9.516;2022-08-04T15:56:54;33.90;42.80
7762;DHT22;3925;48.636;9.516;2022-08-04T15:59:59;33.90;42.20
7762;DHT22;3925;48.636;9.516;2022-08-04T16:02:47;33.90;42.20
7762;DHT22;3925;48.636;9.516;2022-08-04T16:05:31;33.90;41.30
7762;DHT22;3925;48.636;9.516;2022-08-04T16:08:14;33.90;42.30
7762;DHT22;3925;48.636;9.516;2022-08-04T16:10:46;33.80;43.60
7762;DHT22;3925;48.636;9.516;2022-08-04T16:13:16;33.80;43.60
7762;DHT22;3925;48.636;9.516;2022-08-04T16:15:54;33.80;43.70
7762;DHT22;3925;48.636;9.516;2022-08-04T16:18:38;33.80;42.30
7762;DHT22;3925;48.636;9.516;2022-08-04T16:21:21;33.70;42.70
7762;DHT22;3925;48.636;9.516;2022-08-04T16:24:19;33.70;42.90
7762;DHT22;3925;48.636;9.516;2022-08-04T16:26:51;33.70;42.60
7762;DHT22;3925;48.636;9.516;2022-08-04T16:29:38;33.60;42.20
7762;DHT22;3925;48.636;9.516;2022-08-04T16:32:20;33.60;42.90
7762;DHT22;3925;48.636;9.516;2022-08-04T16:34:55;33.60;44.80
7762;DHT22;3925;48.636;9.516;2022-08-04T16:37:29;33.50;44.90
7762;DHT22;3925;48.636;9.516;2022-08-04T16:40:31;33.50;44.00
7762;DHT22;3925;48.636;9.516;2022-08-04T16:43:01;33.50;44.70
7762;DHT22;3925;48.636;9.516;2022-08-04T16:45:52;33.50;44.30
7762;DHT22;3925;48.636;9.516;2022-08-04T16:48:21;33.40;43.20
7762;DHT22;3925;48.636;9.516;2022-08-04T16:50:57;33.40;44.10
7762;DHT22;3925;48.636;9.516;2022-08-04T16:53:25;33.30;44.80
7762;DHT22;3925;48.636;9.516;2022-08-04T16:55:54;33.30;45.00
7762;DHT22;3925;48.636;9.516;2022-08-04T16:58:29;33.20;45.50
7762;DHT22;3925;48.636;9.516;2022-08-04T17:01:04;33.20;44.90
7762;DHT22;3925;48.636;9.516;2022-08-04T17:03:32;33.20;45.10
7762;DHT22;3925;48.636;9.516;2022-08-04T17:06:07;33.10;45.00
7762;DHT22;3925;48.636;9.516;2022-08-04T17:08:37;33.10;45.40
7762;DHT22;3925;48.636;9.516;2022-08-04T17:11:05;33.10;45.10
7762;DHT22;3925;48.636;9.516;2022-08-04T17:13:36;33.10;45.50
7762;DHT22;3925;48.636;9.516;2022-08-04T17:16:06;33.00;45.80
7762;DHT22;3925;48.636;9.516;2022-08-04T17:18:36;33.00;46.70
7762;DHT22;3925;48.636;9.516;2022-08-04T17:21:09;32.90;45.60
7762;DHT22;3925;48.636;9.516;2022-08-04T17:23:38;32.90;46.30
7762;DHT22;3925;48.636;9.516;2022-08-04T17:26:08;32.90;47.10
7762;DHT22;3925;48.636;9.516;2022-08-04T17:28:35;32.80;46.60
7762;DHT22;3925;48.636;9.516;2022-08-04T17:31:06;32.80;47.40
7762;DHT22;3925;48.636;9.516;2022-08-04T17:33:35;32.70;47.10